CheckWX is a tool to help pilots better visualize weather data.  It is not intended as a substitute for an official pre-flight weather briefing.

14:14:32 UTC

LFMI TAF
Istres Le Tubé / Istres Air Base (BA 125) Airport
Istres/Le Tubé, France
TAF LFMI 260800Z 2609/2709 10010KT 9999 SCT015 BKN025 BKN040 TEMPO 2609/2620 RA BKN015 BKN040TCU PROB40 TEMPO 2609/2620 VRB15G25KT 2500 TSRA BKN010 BKN040CB

Jan-26@
09:00 UTC

Jan-26 @ 09:00 UTC

Jan-27@
09:00 UTC

Jan-27 @ 09:00 UTC

TAF LFMI 260800Z 2609/2709 10010KT 9999 SCT015 BKN025 BKN040
Wind
  • 100° at 10 KTS
Cloud Levels
  • Scattered at 1,500' AGL
  • Broken at 2,500' AGL
  • Broken at 4,000' AGL

Jan-26@
09:00 UTC

Jan-26 @ 09:00 UTC

Jan-26@
20:00 UTC

Jan-26 @ 20:00 UTC

TEMPO 2609/2620 RA BKN015 BKN040TCU

Temporary

Temporary Changes expected for less than half the time period

Conditions
Rain
Cloud Levels
  • Broken at 1,500' AGL
  • Broken at 4,000' AGL

Jan-26@
09:00 UTC

Jan-26 @ 09:00 UTC

Jan-26@
20:00 UTC

Jan-26 @ 20:00 UTC

PROB40 TEMPO 2609/2620 VRB15G25KT 2500 TSRA BKN010 BKN040CB

Temporary - 40% Likelihood

Temporary - 40% Likelihood during this time.

Wind
  • Variable at 15 KTS
  • {Gusting to 25 KTS
Conditions
Thunderstorm, Rain
Cloud Levels
  • Broken at 1,000' AGL
  • Broken at 4,000' AGL